• Join FlightAware (Why Join?)
  • Login
  • US Flag 
06:56PM EDT


 

Airport Tracker/Info


-or-


 

Live Flight TrackerFlight Track Log ✈ AFL150 ✈ 28-Mar-2014 ✈ UUEE / SVO - MUHA / HAV

Flight Track Log - Related Links

Times and Time Zones

All times are in EDT time to prevent confusion due to time zone crossing. See the AFL150 flight status page for this flight to view local times or setup timezone preferences in your user account.

Time Position Orientation Groundspeed Altitude Reporting Facility
EDT Latitude Longitude Course Direction KTS MPH feet Rate Location/Type
06:29PM 24.3606 -81.4544 207° Southwest 458 527 26,100  Level Miami Center
06:30PM 24.2539 -81.3844 149° Southeast 449 517 24,900 -600 Descending Miami Center
06:31PM 24.1597 -81.3219 149° Southeast 429 494 25,000  Climbing Miami Center
06:32PM 24.9198 -81.3408 132° Southeast  Level FlightAware Approximate
06:32PM 24.0678 -81.2617 149° Southeast 401 461 25,000  Level Miami Center
06:33PM 24.8148 -81.3998 207° Southwest  Level Estimated
06:33PM 23.9703 -81.2356 166° South 367 422 25,000  Level Miami Center
06:34PM 24.7098 -81.4588 207° Southwest  Level Estimated
06:34PM 23.8519 -81.2133 170° South 356 410 25,000  Level Miami Center
06:35PM 24.6047 -81.5176 207° Southwest  Level Estimated
06:36PM 23.7720 -81.3217 231° Southwest  Level FlightAware Approximate
06:43PM 23.2535 -82.0185 231° Southwest  Level FlightAware Approximate
06:44PM 23.1792 -82.1176 231° Southwest  Level FlightAware Approximate
06:45PM 23.1048 -82.2166 231° Southwest  Level FlightAware Approximate
06:46PM 23.0304 -82.3155 231° Southwest  Level FlightAware Approximate
06:47PM 22.9667 -82.4000 227° Southwest  Level FlightAware Approximate
06:48PM 22.9891 -82.4091 340° North  Level Estimated
06:49PM 22.9891 -82.4091 227° Southwest  Level Estimated
06:50PM 22.9891 -82.4091 North  Level Estimated
06:51PM 22.9891 -82.4091 227° Southwest  Level Estimated
06:52PM 22.9891 -82.4091 North  Level Estimated
06:53PM 22.9891 -82.4091 227° Southwest  Level Estimated
06:54PM 22.9891 -82.4091 North  Level Estimated
06:55PM 22.9891 -82.4091 227° Southwest  Level Estimated